sensor_id;sensor_type;location;lat;lon;timestamp;temperature;humidity
17587;DHT22;8912;52.336;17.172;2022-07-15T00:02:16;14.20;99.90
17587;DHT22;8912;52.336;17.172;2022-07-15T00:04:46;14.10;99.90
17587;DHT22;8912;52.336;17.172;2022-07-15T00:07:15;14.20;99.90
17587;DHT22;8912;52.336;17.172;2022-07-15T00:09:43;14.10;99.90
17587;DHT22;8912;52.336;17.172;2022-07-15T00:12:31;13.90;99.90
17587;DHT22;8912;52.336;17.172;2022-07-15T00:15:01;14.00;99.90
17587;DHT22;8912;52.336;17.172;2022-07-15T00:17:30;14.00;99.90
17587;DHT22;8912;52.336;17.172;2022-07-15T00:19:59;14.10;99.90
17587;DHT22;8912;52.336;17.172;2022-07-15T00:22:28;14.10;99.90
17587;DHT22;8912;52.336;17.172;2022-07-15T00:24:57;14.20;99.90
17587;DHT22;8912;52.336;17.172;2022-07-15T00:27:26;14.20;99.90
17587;DHT22;8912;52.336;17.172;2022-07-15T00:29:56;14.20;99.90
17587;DHT22;8912;52.336;17.172;2022-07-15T00:32:25;14.20;99.90
17587;DHT22;8912;52.336;17.172;2022-07-15T00:34:54;14.10;99.90
17587;DHT22;8912;52.336;17.172;2022-07-15T00:37:23;14.10;99.90
17587;DHT22;8912;52.336;17.172;2022-07-15T00:39:52;14.00;99.90
17587;DHT22;8912;52.336;17.172;2022-07-15T00:42:21;14.00;99.90
17587;DHT22;8912;52.336;17.172;2022-07-15T00:45:11;14.00;99.90
17587;DHT22;8912;52.336;17.172;2022-07-15T00:47:42;14.00;99.90
17587;DHT22;8912;52.336;17.172;2022-07-15T00:50:11;14.10;99.90
17587;DHT22;8912;52.336;17.172;2022-07-15T00:52:42;14.20;99.90
17587;DHT22;8912;52.336;17.172;2022-07-15T00:55:13;14.40;99.90
17587;DHT22;8912;52.336;17.172;2022-07-15T00:57:44;14.50;99.90
17587;DHT22;8912;52.336;17.172;2022-07-15T01:00:15;14.60;99.90
17587;DHT22;8912;52.336;17.172;2022-07-15T01:02:44;14.60;99.90
17587;DHT22;8912;52.336;17.172;2022-07-15T01:05:19;14.70;99.90
17587;DHT22;8912;52.336;17.172;2022-07-15T01:07:49;14.80;99.90
17587;DHT22;8912;52.336;17.172;2022-07-15T01:10:20;14.80;99.90
17587;DHT22;8912;52.336;17.172;2022-07-15T01:12:50;14.90;99.90
17587;DHT22;8912;52.336;17.172;2022-07-15T01:15:28;14.90;99.90
17587;DHT22;8912;52.336;17.172;2022-07-15T01:17:59;14.90;99.90
17587;DHT22;8912;52.336;17.172;2022-07-15T01:20:30;14.90;99.90
17587;DHT22;8912;52.336;17.172;2022-07-15T01:23:02;15.00;99.90
17587;DHT22;8912;52.336;17.172;2022-07-15T01:25:42;15.00;99.90
17587;DHT22;8912;52.336;17.172;2022-07-15T01:28:13;14.90;99.90
17587;DHT22;8912;52.336;17.172;2022-07-15T01:30:42;15.00;99.90
17587;DHT22;8912;52.336;17.172;2022-07-15T01:33:14;15.00;99.90
17587;DHT22;8912;52.336;17.172;2022-07-15T01:35:43;15.00;99.90
17587;DHT22;8912;52.336;17.172;2022-07-15T01:38:14;15.10;99.90
17587;DHT22;8912;52.336;17.172;2022-07-15T01:40:43;15.00;99.90
17587;DHT22;8912;52.336;17.172;2022-07-15T01:43:12;15.00;99.90
17587;DHT22;8912;52.336;17.172;2022-07-15T01:45:42;15.00;99.90
17587;DHT22;8912;52.336;17.172;2022-07-15T01:48:14;15.00;99.90
17587;DHT22;8912;52.336;17.172;2022-07-15T01:51:11;14.90;99.90
17587;DHT22;8912;52.336;17.172;2022-07-15T01:53:42;14.80;99.90
17587;DHT22;8912;52.336;17.172;2022-07-15T01:56:12;14.70;99.90
17587;DHT22;8912;52.336;17.172;2022-07-15T01:58:42;14.60;99.90
17587;DHT22;8912;52.336;17.172;2022-07-15T02:01:12;14.50;99.90
17587;DHT22;8912;52.336;17.172;2022-07-15T02:03:41;14.50;99.90
17587;DHT22;8912;52.336;17.172;2022-07-15T02:06:10;14.40;99.90
17587;DHT22;8912;52.336;17.172;2022-07-15T02:08:39;14.40;99.90
17587;DHT22;8912;52.336;17.172;2022-07-15T02:11:13;14.50;99.90
17587;DHT22;8912;52.336;17.172;2022-07-15T02:13:46;14.50;99.90
17587;DHT22;8912;52.336;17.172;2022-07-15T02:16:16;14.50;99.90
17587;DHT22;8912;52.336;17.172;2022-07-15T02:18:45;14.60;99.90
17587;DHT22;8912;52.336;17.172;2022-07-15T02:21:15;14.60;99.90
17587;DHT22;8912;52.336;17.172;2022-07-15T02:23:44;14.60;99.90
17587;DHT22;8912;52.336;17.172;2022-07-15T02:26:15;14.60;99.90
17587;DHT22;8912;52.336;17.172;2022-07-15T02:28:45;14.60;99.90
17587;DHT22;8912;52.336;17.172;2022-07-15T02:31:14;14.60;99.90
17587;DHT22;8912;52.336;17.172;2022-07-15T02:33:44;14.60;99.90
17587;DHT22;8912;52.336;17.172;2022-07-15T02:36:13;14.60;99.90
17587;DHT22;8912;52.336;17.172;2022-07-15T02:38:45;14.50;99.90
17587;DHT22;8912;52.336;17.172;2022-07-15T02:41:17;14.40;99.90
17587;DHT22;8912;52.336;17.172;2022-07-15T02:43:47;14.40;99.90
17587;DHT22;8912;52.336;17.172;2022-07-15T02:46:17;14.30;99.90
17587;DHT22;8912;52.336;17.172;2022-07-15T02:48:46;14.20;99.90
17587;DHT22;8912;52.336;17.172;2022-07-15T02:51:16;14.20;99.90
17587;DHT22;8912;52.336;17.172;2022-07-15T02:53:46;14.10;99.90
17587;DHT22;8912;52.336;17.172;2022-07-15T02:56:21;14.00;99.90
17587;DHT22;8912;52.336;17.172;2022-07-15T02:58:50;13.90;99.90
17587;DHT22;8912;52.336;17.172;2022-07-15T03:01:19;13.80;99.90
17587;DHT22;8912;52.336;17.172;2022-07-15T03:03:50;13.70;99.90
17587;DHT22;8912;52.336;17.172;2022-07-15T03:06:22;13.70;99.90
17587;DHT22;8912;52.336;17.172;2022-07-15T03:08:51;13.50;99.90
17587;DHT22;8912;52.336;17.172;2022-07-15T03:11:22;13.50;99.90
17587;DHT22;8912;52.336;17.172;2022-07-15T03:13:52;13.50;99.90
17587;DHT22;8912;52.336;17.172;2022-07-15T03:16:22;13.50;99.90
17587;DHT22;8912;52.336;17.172;2022-07-15T03:18:52;13.50;99.90
17587;DHT22;8912;52.336;17.172;2022-07-15T03:21:21;13.60;99.90
17587;DHT22;8912;52.336;17.172;2022-07-15T03:23:50;13.90;99.90
17587;DHT22;8912;52.336;17.172;2022-07-15T03:26:19;14.10;99.90
17587;DHT22;8912;52.336;17.172;2022-07-15T03:28:50;14.20;99.90
17587;DHT22;8912;52.336;17.172;2022-07-15T03:31:19;14.20;99.90
17587;DHT22;8912;52.336;17.172;2022-07-15T03:33:48;14.50;99.90
17587;DHT22;8912;52.336;17.172;2022-07-15T03:36:24;14.90;99.90
17587;DHT22;8912;52.336;17.172;2022-07-15T03:38:54;15.40;99.90
17587;DHT22;8912;52.336;17.172;2022-07-15T03:41:23;15.70;99.90
17587;DHT22;8912;52.336;17.172;2022-07-15T03:43:54;16.10;99.90
17587;DHT22;8912;52.336;17.172;2022-07-15T03:46:23;16.40;99.90
17587;DHT22;8912;52.336;17.172;2022-07-15T03:48:58;16.60;99.90
17587;DHT22;8912;52.336;17.172;2022-07-15T03:51:27;16.70;99.90
17587;DHT22;8912;52.336;17.172;2022-07-15T03:53:58;16.80;99.90
17587;DHT22;8912;52.336;17.172;2022-07-15T03:56:28;17.10;99.90
17587;DHT22;8912;52.336;17.172;2022-07-15T03:59:00;17.30;99.90
17587;DHT22;8912;52.336;17.172;2022-07-15T04:01:29;17.50;99.10
17587;DHT22;8912;52.336;17.172;2022-07-15T04:03:59;17.60;98.10
17587;DHT22;8912;52.336;17.172;2022-07-15T04:06:29;17.60;97.30
17587;DHT22;8912;52.336;17.172;2022-07-15T04:08:59;17.20;98.30
17587;DHT22;8912;52.336;17.172;2022-07-15T04:11:30;17.30;98.30
17587;DHT22;8912;52.336;17.172;2022-07-15T04:14:00;17.30;97.70
17587;DHT22;8912;52.336;17.172;2022-07-15T04:16:30;17.40;96.90
17587;DHT22;8912;52.336;17.172;2022-07-15T04:19:08;17.30;96.60
17587;DHT22;8912;52.336;17.172;2022-07-15T04:21:37;17.40;97.00
17587;DHT22;8912;52.336;17.172;2022-07-15T04:24:06;17.30;96.80
17587;DHT22;8912;52.336;17.172;2022-07-15T04:26:36;17.10;96.40
17587;DHT22;8912;52.336;17.172;2022-07-15T04:29:06;17.00;98.50
17587;DHT22;8912;52.336;17.172;2022-07-15T04:31:36;17.10;97.70
17587;DHT22;8912;52.336;17.172;2022-07-15T04:34:13;17.20;97.10
17587;DHT22;8912;52.336;17.172;2022-07-15T04:36:44;16.80;98.30
17587;DHT22;8912;52.336;17.172;2022-07-15T04:39:12;16.90;97.90
17587;DHT22;8912;52.336;17.172;2022-07-15T04:41:41;17.20;96.50
17587;DHT22;8912;52.336;17.172;2022-07-15T04:44:12;17.10;96.80
17587;DHT22;8912;52.336;17.172;2022-07-15T04:46:41;17.40;95.30
17587;DHT22;8912;52.336;17.172;2022-07-15T04:49:33;17.50;95.50
17587;DHT22;8912;52.336;17.172;2022-07-15T04:52:19;17.80;94.50
17587;DHT22;8912;52.336;17.172;2022-07-15T04:54:49;17.40;94.60
17587;DHT22;8912;52.336;17.172;2022-07-15T04:57:18;17.90;94.10
17587;DHT22;8912;52.336;17.172;2022-07-15T04:59:49;17.80;94.60
17587;DHT22;8912;52.336;17.172;2022-07-15T05:02:18;18.00;93.70
17587;DHT22;8912;52.336;17.172;2022-07-15T05:04:48;17.60;93.70
17587;DHT22;8912;52.336;17.172;2022-07-15T05:07:18;17.60;94.50
17587;DHT22;8912;52.336;17.172;2022-07-15T05:09:48;18.00;92.80
17587;DHT22;8912;52.336;17.172;2022-07-15T05:12:17;17.90;93.30
17587;DHT22;8912;52.336;17.172;2022-07-15T05:14:58;17.60;93.70
17587;DHT22;8912;52.336;17.172;2022-07-15T05:17:27;17.80;93.80
17587;DHT22;8912;52.336;17.172;2022-07-15T05:19:56;17.90;93.80
17587;DHT22;8912;52.336;17.172;2022-07-15T05:22:25;17.80;93.30
17587;DHT22;8912;52.336;17.172;2022-07-15T05:24:54;18.00;93.80
17587;DHT22;8912;52.336;17.172;2022-07-15T05:27:24;17.90;92.80
17587;DHT22;8912;52.336;17.172;2022-07-15T05:29:53;17.90;92.30
17587;DHT22;8912;52.336;17.172;2022-07-15T05:32:23;17.70;93.30
17587;DHT22;8912;52.336;17.172;2022-07-15T05:34:52;17.90;92.90
17587;DHT22;8912;52.336;17.172;2022-07-15T05:37:21;17.90;92.80
17587;DHT22;8912;52.336;17.172;2022-07-15T05:39:50;18.30;91.60
17587;DHT22;8912;52.336;17.172;2022-07-15T05:42:30;18.40;92.00
17587;DHT22;8912;52.336;17.172;2022-07-15T05:44:59;17.90;92.30
17587;DHT22;8912;52.336;17.172;2022-07-15T05:47:30;17.10;93.80
17587;DHT22;8912;52.336;17.172;2022-07-15T05:50:00;16.70;95.90
17587;DHT22;8912;52.336;17.172;2022-07-15T05:52:30;16.30;97.80
17587;DHT22;8912;52.336;17.172;2022-07-15T05:55:03;16.40;99.30
17587;DHT22;8912;52.336;17.172;2022-07-15T05:57:32;16.20;99.00
17587;DHT22;8912;52.336;17.172;2022-07-15T06:00:10;16.30;99.20
17587;DHT22;8912;52.336;17.172;2022-07-15T06:02:44;16.10;99.10
17587;DHT22;8912;52.336;17.172;2022-07-15T06:05:21;16.10;99.90
17587;DHT22;8912;52.336;17.172;2022-07-15T06:07:54;16.30;98.90
17587;DHT22;8912;52.336;17.172;2022-07-15T06:10:29;16.50;98.60
17587;DHT22;8912;52.336;17.172;2022-07-15T06:12:58;16.40;97.50
17587;DHT22;8912;52.336;17.172;2022-07-15T06:15:27;16.60;97.80
17587;DHT22;8912;52.336;17.172;2022-07-15T06:17:59;16.80;95.40
17587;DHT22;8912;52.336;17.172;2022-07-15T06:20:31;16.30;96.50
17587;DHT22;8912;52.336;17.172;2022-07-15T06:23:00;16.50;96.80
17587;DHT22;8912;52.336;17.172;2022-07-15T06:25:29;16.80;95.90
17587;DHT22;8912;52.336;17.172;2022-07-15T06:27:58;16.80;95.30
17587;DHT22;8912;52.336;17.172;2022-07-15T06:30:27;16.60;95.40
17587;DHT22;8912;52.336;17.172;2022-07-15T06:32:56;16.70;94.80
17587;DHT22;8912;52.336;17.172;2022-07-15T06:35:29;16.80;94.50
17587;DHT22;8912;52.336;17.172;2022-07-15T06:37:58;16.70;94.50
17587;DHT22;8912;52.336;17.172;2022-07-15T06:40:28;17.00;94.50
17587;DHT22;8912;52.336;17.172;2022-07-15T06:42:57;16.90;93.60
17587;DHT22;8912;52.336;17.172;2022-07-15T06:45:45;16.70;93.90
17587;DHT22;8912;52.336;17.172;2022-07-15T06:48:17;16.80;93.40
17587;DHT22;8912;52.336;17.172;2022-07-15T06:50:47;16.90;94.70
17587;DHT22;8912;52.336;17.172;2022-07-15T06:53:16;16.90;93.90
17587;DHT22;8912;52.336;17.172;2022-07-15T06:55:45;16.90;94.20
17587;DHT22;8912;52.336;17.172;2022-07-15T06:58:14;17.10;94.20
17587;DHT22;8912;52.336;17.172;2022-07-15T07:00:43;17.10;94.20
17587;DHT22;8912;52.336;17.172;2022-07-15T07:03:11;17.00;93.20
17587;DHT22;8912;52.336;17.172;2022-07-15T07:05:40;17.00;91.30
17587;DHT22;8912;52.336;17.172;2022-07-15T07:08:10;16.90;91.90
17587;DHT22;8912;52.336;17.172;2022-07-15T07:10:39;17.10;92.40
17587;DHT22;8912;52.336;17.172;2022-07-15T07:13:08;17.30;91.70
17587;DHT22;8912;52.336;17.172;2022-07-15T07:15:37;17.00;92.50
17587;DHT22;8912;52.336;17.172;2022-07-15T07:18:11;16.90;92.90
17587;DHT22;8912;52.336;17.172;2022-07-15T07:20:39;16.90;93.00
17587;DHT22;8912;52.336;17.172;2022-07-15T07:23:12;16.70;92.90
17587;DHT22;8912;52.336;17.172;2022-07-15T07:25:40;16.80;92.40
17587;DHT22;8912;52.336;17.172;2022-07-15T07:28:09;17.00;92.80
17587;DHT22;8912;52.336;17.172;2022-07-15T07:30:39;17.10;91.60
17587;DHT22;8912;52.336;17.172;2022-07-15T07:33:08;17.40;90.40
17587;DHT22;8912;52.336;17.172;2022-07-15T07:35:37;17.70;90.20
17587;DHT22;8912;52.336;17.172;2022-07-15T07:38:06;17.70;88.90
17587;DHT22;8912;52.336;17.172;2022-07-15T07:40:36;17.80;89.10
17587;DHT22;8912;52.336;17.172;2022-07-15T07:43:05;18.10;86.70
17587;DHT22;8912;52.336;17.172;2022-07-15T07:45:34;18.00;87.10
17587;DHT22;8912;52.336;17.172;2022-07-15T07:48:03;17.70;84.70
17587;DHT22;8912;52.336;17.172;2022-07-15T07:50:32;17.70;86.60
17587;DHT22;8912;52.336;17.172;2022-07-15T07:53:01;17.50;86.20
17587;DHT22;8912;52.336;17.172;2022-07-15T07:55:29;17.30;85.20
17587;DHT22;8912;52.336;17.172;2022-07-15T07:58:01;17.00;85.40
17587;DHT22;8912;52.336;17.172;2022-07-15T08:00:30;17.00;86.80
17587;DHT22;8912;52.336;17.172;2022-07-15T08:03:00;17.40;86.60
17587;DHT22;8912;52.336;17.172;2022-07-15T08:05:29;17.20;85.70
17587;DHT22;8912;52.336;17.172;2022-07-15T08:08:08;17.10;87.60
17587;DHT22;8912;52.336;17.172;2022-07-15T08:10:38;17.00;89.80
17587;DHT22;8912;52.336;17.172;2022-07-15T08:13:15;16.80;87.20
17587;DHT22;8912;52.336;17.172;2022-07-15T08:15:44;16.80;87.00
17587;DHT22;8912;52.336;17.172;2022-07-15T08:18:13;16.90;86.10
17587;DHT22;8912;52.336;17.172;2022-07-15T08:20:42;17.10;84.90
17587;DHT22;8912;52.336;17.172;2022-07-15T08:23:11;17.40;86.20
17587;DHT22;8912;52.336;17.172;2022-07-15T08:25:39;17.70;81.20
17587;DHT22;8912;52.336;17.172;2022-07-15T08:28:08;17.90;80.70
17587;DHT22;8912;52.336;17.172;2022-07-15T08:30:38;18.20;81.00
17587;DHT22;8912;52.336;17.172;2022-07-15T08:33:07;18.00;78.20
17587;DHT22;8912;52.336;17.172;2022-07-15T08:35:36;17.70;77.70
17587;DHT22;8912;52.336;17.172;2022-07-15T08:38:06;17.40;79.20
17587;DHT22;8912;52.336;17.172;2022-07-15T08:40:37;17.30;81.40
17587;DHT22;8912;52.336;17.172;2022-07-15T08:43:07;17.20;81.50
17587;DHT22;8912;52.336;17.172;2022-07-15T08:45:40;17.30;81.10
17587;DHT22;8912;52.336;17.172;2022-07-15T08:48:11;17.30;81.20
17587;DHT22;8912;52.336;17.172;2022-07-15T08:50:41;17.30;81.10
17587;DHT22;8912;52.336;17.172;2022-07-15T08:53:11;17.70;82.10
17587;DHT22;8912;52.336;17.172;2022-07-15T08:55:40;18.70;81.10
17587;DHT22;8912;52.336;17.172;2022-07-15T08:58:09;19.10;75.00
17587;DHT22;8912;52.336;17.172;2022-07-15T09:00:39;18.80;72.50
17587;DHT22;8912;52.336;17.172;2022-07-15T09:03:08;18.00;73.80
17587;DHT22;8912;52.336;17.172;2022-07-15T09:05:38;17.70;76.20
17587;DHT22;8912;52.336;17.172;2022-07-15T09:08:09;17.40;77.50
17587;DHT22;8912;52.336;17.172;2022-07-15T09:10:44;17.40;78.50
17587;DHT22;8912;52.336;17.172;2022-07-15T09:13:26;17.40;78.60
17587;DHT22;8912;52.336;17.172;2022-07-15T09:15:59;17.50;78.90
17587;DHT22;8912;52.336;17.172;2022-07-15T09:18:29;17.50;78.80
17587;DHT22;8912;52.336;17.172;2022-07-15T09:21:01;17.60;78.50
17587;DHT22;8912;52.336;17.172;2022-07-15T09:23:30;17.80;78.70
17587;DHT22;8912;52.336;17.172;2022-07-15T09:26:22;18.20;78.00
17587;DHT22;8912;52.336;17.172;2022-07-15T09:28:51;18.10;76.70
17587;DHT22;8912;52.336;17.172;2022-07-15T09:31:30;18.30;77.00
17587;DHT22;8912;52.336;17.172;2022-07-15T09:34:16;18.30;77.50
17587;DHT22;8912;52.336;17.172;2022-07-15T09:36:47;18.50;77.50
17587;DHT22;8912;52.336;17.172;2022-07-15T09:39:19;18.60;75.30
17587;DHT22;8912;52.336;17.172;2022-07-15T09:41:49;18.50;75.70
17587;DHT22;8912;52.336;17.172;2022-07-15T09:44:20;18.50;74.80
17587;DHT22;8912;52.336;17.172;2022-07-15T09:46:52;18.40;76.50
17587;DHT22;8912;52.336;17.172;2022-07-15T09:49:32;18.20;76.30
17587;DHT22;8912;52.336;17.172;2022-07-15T09:52:04;18.20;76.10
17587;DHT22;8912;52.336;17.172;2022-07-15T09:54:36;18.40;75.90
17587;DHT22;8912;52.336;17.172;2022-07-15T09:57:08;18.20;75.90
17587;DHT22;8912;52.336;17.172;2022-07-15T09:59:37;18.30;76.70
17587;DHT22;8912;52.336;17.172;2022-07-15T10:02:09;18.20;76.80
17587;DHT22;8912;52.336;17.172;2022-07-15T10:04:39;18.90;76.10
17587;DHT22;8912;52.336;17.172;2022-07-15T10:07:11;18.80;74.00
17587;DHT22;8912;52.336;17.172;2022-07-15T10:09:58;18.50;75.70
17587;DHT22;8912;52.336;17.172;2022-07-15T10:12:44;18.60;75.00
17587;DHT22;8912;52.336;17.172;2022-07-15T10:15:23;19.20;72.70
17587;DHT22;8912;52.336;17.172;2022-07-15T10:18:04;19.20;68.60
17587;DHT22;8912;52.336;17.172;2022-07-15T10:20:51;19.00;69.30
17587;DHT22;8912;52.336;17.172;2022-07-15T10:23:37;18.90;70.00
17587;DHT22;8912;52.336;17.172;2022-07-15T10:26:20;18.80;70.10
17587;DHT22;8912;52.336;17.172;2022-07-15T10:28:59;18.40;72.20
17587;DHT22;8912;52.336;17.172;2022-07-15T10:31:31;18.50;73.60
17587;DHT22;8912;52.336;17.172;2022-07-15T10:34:19;18.60;72.60
17587;DHT22;8912;52.336;17.172;2022-07-15T10:37:02;18.40;73.20
17587;DHT22;8912;52.336;17.172;2022-07-15T10:39:55;18.40;72.80
17587;DHT22;8912;52.336;17.172;2022-07-15T10:42:56;18.30;72.80
17587;DHT22;8912;52.336;17.172;2022-07-15T10:45:25;18.40;73.10
17587;DHT22;8912;52.336;17.172;2022-07-15T10:48:25;18.80;72.40
17587;DHT22;8912;52.336;17.172;2022-07-15T10:50:56;18.70;68.20
17587;DHT22;8912;52.336;17.172;2022-07-15T10:53:25;18.70;69.60
17587;DHT22;8912;52.336;17.172;2022-07-15T10:55:55;18.90;70.60
17587;DHT22;8912;52.336;17.172;2022-07-15T10:58:24;19.20;69.50
17587;DHT22;8912;52.336;17.172;2022-07-15T11:00:53;19.20;68.90
17587;DHT22;8912;52.336;17.172;2022-07-15T11:03:22;19.10;69.10
17587;DHT22;8912;52.336;17.172;2022-07-15T11:06:04;19.10;69.20
17587;DHT22;8912;52.336;17.172;2022-07-15T11:08:53;19.20;70.00
17587;DHT22;8912;52.336;17.172;2022-07-15T11:11:48;19.30;68.90
17587;DHT22;8912;52.336;17.172;2022-07-15T11:14:53;19.50;69.10
17587;DHT22;8912;52.336;17.172;2022-07-15T11:17:24;19.30;67.40
17587;DHT22;8912;52.336;17.172;2022-07-15T11:20:08;19.30;65.60
17587;DHT22;8912;52.336;17.172;2022-07-15T11:22:42;18.90;67.30
17587;DHT22;8912;52.336;17.172;2022-07-15T11:25:17;18.80;70.30
17587;DHT22;8912;52.336;17.172;2022-07-15T11:28:05;19.00;68.90
17587;DHT22;8912;52.336;17.172;2022-07-15T11:30:37;19.70;68.10
17587;DHT22;8912;52.336;17.172;2022-07-15T11:33:09;19.80;64.90
17587;DHT22;8912;52.336;17.172;2022-07-15T11:35:46;20.10;66.40
17587;DHT22;8912;52.336;17.172;2022-07-15T11:38:18;20.50;64.10
17587;DHT22;8912;52.336;17.172;2022-07-15T11:40:52;20.70;63.10
17587;DHT22;8912;52.336;17.172;2022-07-15T11:43:39;20.60;63.20
17587;DHT22;8912;52.336;17.172;2022-07-15T11:46:26;20.00;61.10
17587;DHT22;8912;52.336;17.172;2022-07-15T11:48:57;19.70;62.20
17587;DHT22;8912;52.336;17.172;2022-07-15T11:51:28;19.80;64.20
17587;DHT22;8912;52.336;17.172;2022-07-15T11:53:59;19.80;64.20
17587;DHT22;8912;52.336;17.172;2022-07-15T11:56:28;20.30;63.90
17587;DHT22;8912;52.336;17.172;2022-07-15T11:58:57;20.60;61.60
17587;DHT22;8912;52.336;17.172;2022-07-15T12:01:27;20.20;62.10
17587;DHT22;8912;52.336;17.172;2022-07-15T12:03:58;20.10;63.00
17587;DHT22;8912;52.336;17.172;2022-07-15T12:06:28;19.70;63.70
17587;DHT22;8912;52.336;17.172;2022-07-15T12:09:00;19.30;64.00
17587;DHT22;8912;52.336;17.172;2022-07-15T12:11:32;19.40;65.50
17587;DHT22;8912;52.336;17.172;2022-07-15T12:14:03;19.50;65.60
17587;DHT22;8912;52.336;17.172;2022-07-15T12:16:34;19.90;65.20
17587;DHT22;8912;52.336;17.172;2022-07-15T12:19:06;20.10;64.30
17587;DHT22;8912;52.336;17.172;2022-07-15T12:21:36;20.60;60.00
17587;DHT22;8912;52.336;17.172;2022-07-15T12:24:10;20.70;59.30
17587;DHT22;8912;52.336;17.172;2022-07-15T12:26:41;20.50;59.60
17587;DHT22;8912;52.336;17.172;2022-07-15T12:29:12;20.60;60.00
17587;DHT22;8912;52.336;17.172;2022-07-15T12:31:41;20.50;59.50
17587;DHT22;8912;52.336;17.172;2022-07-15T12:34:11;20.30;61.40
17587;DHT22;8912;52.336;17.172;2022-07-15T12:36:40;20.20;61.10
17587;DHT22;8912;52.336;17.172;2022-07-15T12:39:14;20.00;60.00
17587;DHT22;8912;52.336;17.172;2022-07-15T12:42:05;19.80;59.40
17587;DHT22;8912;52.336;17.172;2022-07-15T12:44:34;19.80;58.80
17587;DHT22;8912;52.336;17.172;2022-07-15T12:47:04;19.80;59.20
17587;DHT22;8912;52.336;17.172;2022-07-15T12:49:48;20.50;59.30
17587;DHT22;8912;52.336;17.172;2022-07-15T12:52:20;20.30;58.80
17587;DHT22;8912;52.336;17.172;2022-07-15T12:54:53;20.10;60.10
17587;DHT22;8912;52.336;17.172;2022-07-15T12:57:29;20.40;59.70
17587;DHT22;8912;52.336;17.172;2022-07-15T13:00:00;19.90;59.90
17587;DHT22;8912;52.336;17.172;2022-07-15T13:02:31;20.20;58.90
17587;DHT22;8912;52.336;17.172;2022-07-15T13:05:00;20.10;58.60
17587;DHT22;8912;52.336;17.172;2022-07-15T13:07:29;19.90;59.40
17587;DHT22;8912;52.336;17.172;2022-07-15T13:09:59;19.90;58.80
17587;DHT22;8912;52.336;17.172;2022-07-15T13:12:28;19.80;59.00
17587;DHT22;8912;52.336;17.172;2022-07-15T13:14:57;19.70;59.80
17587;DHT22;8912;52.336;17.172;2022-07-15T13:17:26;19.90;59.70
17587;DHT22;8912;52.336;17.172;2022-07-15T13:19:55;19.90;58.10
17587;DHT22;8912;52.336;17.172;2022-07-15T13:22:24;20.10;58.50
17587;DHT22;8912;52.336;17.172;2022-07-15T13:24:53;20.40;59.30
17587;DHT22;8912;52.336;17.172;2022-07-15T13:27:23;20.40;57.50
17587;DHT22;8912;52.336;17.172;2022-07-15T13:29:55;20.30;57.20
17587;DHT22;8912;52.336;17.172;2022-07-15T13:32:24;20.00;58.00
17587;DHT22;8912;52.336;17.172;2022-07-15T13:34:56;20.00;58.60
17587;DHT22;8912;52.336;17.172;2022-07-15T13:37:25;20.10;58.40
17587;DHT22;8912;52.336;17.172;2022-07-15T13:39:54;20.00;58.10
17587;DHT22;8912;52.336;17.172;2022-07-15T13:42:25;19.80;58.00
17587;DHT22;8912;52.336;17.172;2022-07-15T13:44:55;20.00;58.80
17587;DHT22;8912;52.336;17.172;2022-07-15T13:47:25;20.30;57.50
17587;DHT22;8912;52.336;17.172;2022-07-15T13:49:54;20.30;57.60
17587;DHT22;8912;52.336;17.172;2022-07-15T13:52:44;20.20;58.10
17587;DHT22;8912;52.336;17.172;2022-07-15T13:55:14;20.80;57.30
17587;DHT22;8912;52.336;17.172;2022-07-15T13:57:45;21.40;56.10
17587;DHT22;8912;52.336;17.172;2022-07-15T14:00:16;21.00;54.40
17587;DHT22;8912;52.336;17.172;2022-07-15T14:02:46;20.60;55.30
17587;DHT22;8912;52.336;17.172;2022-07-15T14:05:15;20.90;56.70
17587;DHT22;8912;52.336;17.172;2022-07-15T14:07:44;20.90;54.90
17587;DHT22;8912;52.336;17.172;2022-07-15T14:10:14;21.30;56.30
17587;DHT22;8912;52.336;17.172;2022-07-15T14:12:44;20.80;54.80
17587;DHT22;8912;52.336;17.172;2022-07-15T14:15:13;20.90;54.50
17587;DHT22;8912;52.336;17.172;2022-07-15T14:17:51;21.20;55.00
17587;DHT22;8912;52.336;17.172;2022-07-15T14:20:20;21.10;54.70
17587;DHT22;8912;52.336;17.172;2022-07-15T14:22:49;21.10;55.40
17587;DHT22;8912;52.336;17.172;2022-07-15T14:25:18;20.90;55.80
17587;DHT22;8912;52.336;17.172;2022-07-15T14:27:49;20.80;55.60
17587;DHT22;8912;52.336;17.172;2022-07-15T14:30:18;20.60;55.90
17587;DHT22;8912;52.336;17.172;2022-07-15T14:32:47;20.50;55.90
17587;DHT22;8912;52.336;17.172;2022-07-15T14:35:16;20.50;56.70
17587;DHT22;8912;52.336;17.172;2022-07-15T14:37:46;20.90;55.00
17587;DHT22;8912;52.336;17.172;2022-07-15T14:40:15;20.80;55.50
17587;DHT22;8912;52.336;17.172;2022-07-15T14:42:44;20.50;55.50
17587;DHT22;8912;52.336;17.172;2022-07-15T14:45:14;20.30;54.90
17587;DHT22;8912;52.336;17.172;2022-07-15T14:47:43;20.50;56.10
17587;DHT22;8912;52.336;17.172;2022-07-15T14:50:12;20.40;55.60
17587;DHT22;8912;52.336;17.172;2022-07-15T14:52:49;20.50;56.50
17587;DHT22;8912;52.336;17.172;2022-07-15T14:55:17;20.60;55.90
17587;DHT22;8912;52.336;17.172;2022-07-15T14:57:46;20.40;55.50
17587;DHT22;8912;52.336;17.172;2022-07-15T15:00:17;20.30;56.30
17587;DHT22;8912;52.336;17.172;2022-07-15T15:02:47;20.60;57.60
17587;DHT22;8912;52.336;17.172;2022-07-15T15:05:16;20.60;56.50
17587;DHT22;8912;52.336;17.172;2022-07-15T15:07:45;20.60;57.00
17587;DHT22;8912;52.336;17.172;2022-07-15T15:10:14;20.40;57.20
17587;DHT22;8912;52.336;17.172;2022-07-15T15:12:43;20.30;57.50
17587;DHT22;8912;52.336;17.172;2022-07-15T15:15:12;20.40;57.90
17587;DHT22;8912;52.336;17.172;2022-07-15T15:17:42;20.50;57.10
17587;DHT22;8912;52.336;17.172;2022-07-15T15:20:11;20.60;56.60
17587;DHT22;8912;52.336;17.172;2022-07-15T15:22:40;20.50;55.90
17587;DHT22;8912;52.336;17.172;2022-07-15T15:25:09;20.50;56.80
17587;DHT22;8912;52.336;17.172;2022-07-15T15:27:38;20.50;56.70
17587;DHT22;8912;52.336;17.172;2022-07-15T15:30:08;20.50;56.80
17587;DHT22;8912;52.336;17.172;2022-07-15T15:32:37;20.70;56.30
17587;DHT22;8912;52.336;17.172;2022-07-15T15:35:08;21.00;55.40
17587;DHT22;8912;52.336;17.172;2022-07-15T15:37:37;21.30;54.20
17587;DHT22;8912;52.336;17.172;2022-07-15T15:40:06;21.50;53.60
17587;DHT22;8912;52.336;17.172;2022-07-15T15:42:37;21.70;54.50
17587;DHT22;8912;52.336;17.172;2022-07-15T15:45:07;21.40;53.20
17587;DHT22;8912;52.336;17.172;2022-07-15T15:47:36;21.10;53.70
17587;DHT22;8912;52.336;17.172;2022-07-15T15:50:05;20.60;54.90
17587;DHT22;8912;52.336;17.172;2022-07-15T15:52:36;20.40;55.30
17587;DHT22;8912;52.336;17.172;2022-07-15T15:55:05;20.20;55.70
17587;DHT22;8912;52.336;17.172;2022-07-15T15:57:34;20.20;56.10
17587;DHT22;8912;52.336;17.172;2022-07-15T16:00:07;20.20;56.30